Time;durP1;ratioP1;P1;durP2;ratioP2;P2;SDS_P1;SDS_P2;PMS_P1;PMS_P2;Temp;Humidity;BMP_temperature;BMP_pressure;BME280_temperature;BME280_humidity;BME280_pressure;Samples;Min_cycle;Max_cycle;Signal;HPM_P1;HPM_P2
2020/12/18 00:02:04;;;;;;;49.47;21.33;;;;;;;;;;731751;188;925114;-66
2020/12/18 00:04:30;;;;;;;40.97;21.20;;;;;;;;;;736962;187;919107;-66
2020/12/18 00:06:56;;;;;;;46.20;20.83;;;;;;;;;;736292;188;918735;-67
2020/12/18 00:09:22;;;;;;;63.97;24.37;;;;;;;;;;733719;188;921643;-67
2020/12/18 00:11:48;;;;;;;52.10;22.48;;;;;;;;;;731014;187;919116;-65
2020/12/18 00:14:14;;;;;;;55.63;24.10;;;;;;;;;;741916;188;918642;-67
2020/12/18 00:16:39;;;;;;;52.37;22.73;;;;;;;;;;732850;188;917901;-66
2020/12/18 00:19:05;;;;;;;48.57;22.90;;;;;;;;;;728984;189;918423;-66
2020/12/18 00:21:31;;;;;;;53.00;24.42;;;;;;;;;;739002;189;919420;-67
2020/12/18 00:23:57;;;;;;;52.63;24.03;;;;;;;;;;735386;188;919365;-67
2020/12/18 00:26:23;;;;;;;63.20;26.60;;;;;;;;;;735355;188;919955;-66
2020/12/18 00:28:49;;;;;;;54.90;23.50;;;;;;;;;;737215;188;918542;-67
2020/12/18 00:31:14;;;;;;;58.00;24.30;;;;;;;;;;737517;188;914895;-66
2020/12/18 00:33:40;;;;;;;71.43;23.48;;;;;;;;;;734241;188;916703;-66
2020/12/18 00:36:06;;;;;;;54.07;23.73;;;;;;;;;;735421;188;915164;-66
2020/12/18 00:38:32;;;;;;;61.63;23.27;;;;;;;;;;734951;188;935179;-67
2020/12/18 00:40:58;;;;;;;62.30;25.27;;;;;;;;;;732738;189;921558;-66
2020/12/18 00:43:24;;;;;;;64.73;23.70;;;;;;;;;;732958;188;919149;-67
2020/12/18 00:45:49;;;;;;;56.00;23.90;;;;;;;;;;740590;189;919634;-67
2020/12/18 00:48:15;;;;;;;60.07;22.93;;;;;;;;;;734350;189;919397;-66
2020/12/18 00:50:41;;;;;;;59.43;23.93;;;;;;;;;;735527;187;918886;-67
2020/12/18 00:53:08;;;;;;;72.53;25.03;;;;;;;;;;737801;189;858046;-67
2020/12/18 00:55:33;;;;;;;56.20;23.47;;;;;;;;;;739706;188;917812;-66
2020/12/18 00:57:59;;;;;;;67.83;24.30;;;;;;;;;;732821;187;918201;-66
2020/12/18 01:00:25;;;;;;;60.83;23.65;;;;;;;;;;737454;189;920195;-64
2020/12/18 01:02:51;;;;;;;63.53;21.40;;;;;;;;;;733479;191;919364;-67
2020/12/18 01:05:17;;;;;;;54.40;22.25;;;;;;;;;;729690;188;1021523;-66
2020/12/18 01:07:43;;;;;;;60.43;23.00;;;;;;;;;;735877;187;937066;-66
2020/12/18 01:10:08;;;;;;;63.00;23.25;;;;;;;;;;737212;188;919285;-67
2020/12/18 01:12:34;;;;;;;52.33;21.73;;;;;;;;;;735908;188;920220;-66
2020/12/18 01:15:00;;;;;;;63.60;26.00;;;;;;;;;;731612;188;918456;-67
2020/12/18 01:17:26;;;;;;;62.87;24.47;;;;;;;;;;741241;188;917941;-66
2020/12/18 01:19:52;;;;;;;57.17;20.93;;;;;;;;;;736038;187;917222;-67
2020/12/18 01:22:18;;;;;;;57.27;22.17;;;;;;;;;;736266;188;920252;-66
2020/12/18 01:24:43;;;;;;;53.13;21.80;;;;;;;;;;735374;188;904127;-66
2020/12/18 01:27:09;;;;;;;57.03;20.47;;;;;;;;;;733398;189;917248;-66
2020/12/18 01:29:35;;;;;;;54.10;20.60;;;;;;;;;;736224;188;916164;-66
2020/12/18 01:32:01;;;;;;;54.53;20.37;;;;;;;;;;733776;189;918466;-66
2020/12/18 01:34:27;;;;;;;59.77;21.93;;;;;;;;;;727588;189;919257;-65
2020/12/18 01:36:53;;;;;;;52.30;22.30;;;;;;;;;;730984;189;920573;-66
2020/12/18 01:39:18;;;;;;;60.37;23.87;;;;;;;;;;731519;188;924638;-66
2020/12/18 01:41:44;;;;;;;63.77;24.50;;;;;;;;;;739487;189;919145;-65
2020/12/18 01:44:10;;;;;;;58.67;22.57;;;;;;;;;;730917;189;918999;-66
2020/12/18 01:46:36;;;;;;;70.45;25.30;;;;;;;;;;731638;188;918177;-66
2020/12/18 01:49:02;;;;;;;72.33;24.50;;;;;;;;;;739086;187;915771;-69
2020/12/18 01:51:28;;;;;;;68.40;23.80;;;;;;;;;;736583;188;915565;-66
2020/12/18 01:53:54;;;;;;;55.33;20.63;;;;;;;;;;734378;188;916308;-66
2020/12/18 01:56:20;;;;;;;63.33;23.73;;;;;;;;;;736501;188;919994;-64
2020/12/18 01:58:46;;;;;;;58.00;21.40;;;;;;;;;;732403;190;915437;-66
2020/12/18 02:01:12;;;;;;;69.60;22.47;;;;;;;;;;721645;191;915786;-66
2020/12/18 02:03:38;;;;;;;71.43;23.87;;;;;;;;;;731433;188;915527;-67
2020/12/18 02:06:05;;;;;;;57.20;22.42;;;;;;;;;;739999;188;916437;-66
2020/12/18 02:08:31;;;;;;;47.97;21.73;;;;;;;;;;732807;189;943194;-66
2020/12/18 02:10:57;;;;;;;58.13;19.30;;;;;;;;;;732128;188;915205;-66
2020/12/18 02:13:23;;;;;;;51.97;22.17;;;;;;;;;;739728;188;915276;-66
2020/12/18 02:15:51;;;;;;;51.70;18.57;;;;;;;;;;727671;189;1030192;-66
2020/12/18 02:18:16;;;;;;;46.42;17.60;;;;;;;;;;737799;187;914707;-66
2020/12/18 02:20:42;;;;;;;45.80;20.00;;;;;;;;;;736410;188;916185;-64
2020/12/18 02:23:08;;;;;;;51.23;21.50;;;;;;;;;;718021;188;915795;-66
2020/12/18 02:25:34;;;;;;;56.50;21.10;;;;;;;;;;728740;188;915010;-66
2020/12/18 02:28:00;;;;;;;51.30;18.77;;;;;;;;;;732669;187;980426;-65
2020/12/18 02:30:26;;;;;;;50.53;19.57;;;;;;;;;;742161;188;915357;-65
2020/12/18 02:32:51;;;;;;;53.53;22.98;;;;;;;;;;731807;188;916720;-66
2020/12/18 02:35:17;;;;;;;54.27;21.10;;;;;;;;;;732153;187;915456;-67
2020/12/18 02:37:43;;;;;;;53.08;16.05;;;;;;;;;;738897;187;919205;-67
2020/12/18 02:40:09;;;;;;;45.53;18.37;;;;;;;;;;730918;189;919426;-66
2020/12/18 02:42:35;;;;;;;52.53;19.80;;;;;;;;;;731831;189;918868;-66
2020/12/18 02:45:01;;;;;;;50.23;19.07;;;;;;;;;;741280;189;918884;-67
2020/12/18 02:47:26;;;;;;;50.60;18.57;;;;;;;;;;731157;189;920060;-67
2020/12/18 02:49:52;;;;;;;49.07;19.57;;;;;;;;;;738983;188;918736;-66
2020/12/18 02:52:18;;;;;;;49.33;21.57;;;;;;;;;;729743;188;919576;-67
2020/12/18 02:54:44;;;;;;;53.17;19.03;;;;;;;;;;727625;190;919556;-66
2020/12/18 02:57:10;;;;;;;50.93;18.33;;;;;;;;;;731108;189;919269;-66
2020/12/18 02:59:36;;;;;;;44.33;18.83;;;;;;;;;;732093;188;926737;-66
2020/12/18 03:02:02;;;;;;;49.40;19.37;;;;;;;;;;736468;189;909454;-66
2020/12/18 03:04:27;;;;;;;47.63;19.90;;;;;;;;;;732325;189;919684;-66
2020/12/18 03:06:53;;;;;;;45.27;19.60;;;;;;;;;;733265;189;918728;-66
2020/12/18 03:09:19;;;;;;;46.80;17.13;;;;;;;;;;731762;189;921595;-66
2020/12/18 03:11:45;;;;;;;46.30;18.40;;;;;;;;;;738416;189;919269;-67
2020/12/18 03:14:11;;;;;;;55.90;21.42;;;;;;;;;;734344;188;918916;-67
2020/12/18 03:16:37;;;;;;;55.93;18.47;;;;;;;;;;737177;189;919282;-66
2020/12/18 03:19:02;;;;;;;56.67;20.00;;;;;;;;;;728159;189;1020645;-67
2020/12/18 03:21:28;;;;;;;48.07;20.60;;;;;;;;;;730535;189;920099;-66
2020/12/18 03:23:54;;;;;;;50.90;20.00;;;;;;;;;;730070;189;919817;-66
2020/12/18 03:26:20;;;;;;;55.67;19.47;;;;;;;;;;740070;188;918120;-67
2020/12/18 03:28:46;;;;;;;45.77;19.33;;;;;;;;;;735410;188;918301;-67
2020/12/18 03:31:12;;;;;;;49.40;20.17;;;;;;;;;;734289;188;919123;-66
2020/12/18 03:33:37;;;;;;;54.53;20.27;;;;;;;;;;744297;188;918368;-67
2020/12/18 03:36:03;;;;;;;42.23;19.17;;;;;;;;;;732338;187;918901;-67
2020/12/18 03:38:29;;;;;;;60.97;19.17;;;;;;;;;;735233;188;929400;-66
2020/12/18 03:40:55;;;;;;;48.43;18.80;;;;;;;;;;736819;188;919694;-67
2020/12/18 03:43:21;;;;;;;42.35;17.83;;;;;;;;;;731414;188;919091;-66
2020/12/18 03:45:47;;;;;;;50.37;17.63;;;;;;;;;;731369;188;918008;-66
2020/12/18 03:48:13;;;;;;;49.67;18.87;;;;;;;;;;728148;188;1738681;-67
2020/12/18 03:50:38;;;;;;;51.17;20.40;;;;;;;;;;722710;192;918810;-67
2020/12/18 03:53:04;;;;;;;53.47;17.77;;;;;;;;;;737825;189;919015;-65
2020/12/18 03:55:30;;;;;;;53.25;20.75;;;;;;;;;;731493;189;1185407;-66
2020/12/18 03:57:56;;;;;;;45.27;19.47;;;;;;;;;;743950;188;917338;-66
2020/12/18 04:00:22;;;;;;;67.63;21.47;;;;;;;;;;733344;188;918918;-66
2020/12/18 04:02:48;;;;;;;49.63;19.97;;;;;;;;;;734626;189;917943;-67
2020/12/18 04:05:13;;;;;;;55.60;21.07;;;;;;;;;;738356;189;916207;-66
2020/12/18 04:07:39;;;;;;;52.80;20.53;;;;;;;;;;729613;189;916046;-66
2020/12/18 04:10:05;;;;;;;58.57;19.80;;;;;;;;;;735053;188;1018412;-66
2020/12/18 04:12:32;;;;;;;49.08;17.45;;;;;;;;;;737388;189;914220;-66
2020/12/18 04:14:58;;;;;;;59.07;20.43;;;;;;;;;;737256;189;915588;-67
2020/12/18 04:17:23;;;;;;;71.90;20.30;;;;;;;;;;736187;188;934289;-67
2020/12/18 04:19:49;;;;;;;54.07;20.10;;;;;;;;;;731483;189;915530;-67
2020/12/18 04:22:15;;;;;;;48.83;21.03;;;;;;;;;;740899;189;915689;-66
2020/12/18 04:24:41;;;;;;;59.40;20.93;;;;;;;;;;734461;188;918751;-67
2020/12/18 04:27:07;;;;;;;62.33;20.77;;;;;;;;;;732903;189;916616;-66
2020/12/18 04:29:33;;;;;;;58.73;22.97;;;;;;;;;;741408;189;915429;-66
2020/12/18 04:31:59;;;;;;;74.57;23.80;;;;;;;;;;734185;188;918880;-66
2020/12/18 04:34:24;;;;;;;67.53;21.93;;;;;;;;;;735189;189;919303;-66
2020/12/18 04:36:50;;;;;;;64.70;21.90;;;;;;;;;;736258;189;919182;-66
2020/12/18 04:39:16;;;;;;;69.50;26.20;;;;;;;;;;733630;188;919353;-66
2020/12/18 04:41:42;;;;;;;64.23;22.00;;;;;;;;;;734352;187;918938;-66
2020/12/18 04:44:08;;;;;;;59.53;22.87;;;;;;;;;;735645;188;919896;-65
2020/12/18 04:46:34;;;;;;;66.67;21.20;;;;;;;;;;733010;188;919090;-66
2020/12/18 04:49:00;;;;;;;58.43;20.30;;;;;;;;;;731979;188;922208;-66
2020/12/18 04:51:26;;;;;;;58.37;20.43;;;;;;;;;;732962;188;919106;-65
2020/12/18 04:53:52;;;;;;;48.03;19.87;;;;;;;;;;739627;187;917803;-66
2020/12/18 04:56:19;;;;;;;64.93;22.50;;;;;;;;;;735435;188;919296;-66
2020/12/18 04:58:45;;;;;;;66.20;20.13;;;;;;;;;;732595;188;918885;-67
2020/12/18 05:01:11;;;;;;;57.50;19.10;;;;;;;;;;738819;189;919257;-67
2020/12/18 05:03:37;;;;;;;72.83;25.30;;;;;;;;;;726333;188;2329813;-67
2020/12/18 05:06:04;;;;;;;65.50;23.50;;;;;;;;;;736750;188;919580;-67
2020/12/18 05:08:29;;;;;;;54.20;19.45;;;;;;;;;;730315;189;920141;-66
2020/12/18 05:10:55;;;;;;;54.50;21.10;;;;;;;;;;734060;189;919196;-66
2020/12/18 05:13:21;;;;;;;57.53;22.93;;;;;;;;;;730117;189;915087;-66
2020/12/18 05:15:47;;;;;;;61.87;21.03;;;;;;;;;;738781;188;915040;-66
2020/12/18 05:18:13;;;;;;;61.43;21.50;;;;;;;;;;741338;189;618345;-66
2020/12/18 05:20:39;;;;;;;87.63;24.80;;;;;;;;;;739064;188;915855;-66
2020/12/18 05:23:09;;;;;;;68.12;22.67;;;;;;;;;;733649;187;919646;-68
2020/12/18 05:25:34;;;;;;;69.37;22.60;;;;;;;;;;738610;189;919232;-66
2020/12/18 05:28:03;;;;;;;75.30;24.57;;;;;;;;;;732710;189;919025;-66
2020/12/18 05:30:26;;;;;;;52.70;22.50;;;;;;;;;;732679;189;918961;-66
2020/12/18 05:32:52;;;;;;;67.47;23.27;;;;;;;;;;733288;189;919341;-66
2020/12/18 05:35:18;;;;;;;57.33;20.87;;;;;;;;;;731723;189;918228;-66
2020/12/18 05:37:44;;;;;;;67.10;23.90;;;;;;;;;;728982;189;919899;-67
2020/12/18 05:40:09;;;;;;;63.33;21.80;;;;;;;;;;733014;189;918824;-67
2020/12/18 05:42:41;;;;;;;59.03;21.95;;;;;;;;;;743291;189;919154;-65
2020/12/18 05:45:13;;;;;;;71.47;21.20;;;;;;;;;;731162;188;1301515;-67
2020/12/18 05:47:56;;;;;;;63.00;23.90;;;;;;;;;;734095;189;918700;-67
2020/12/18 05:50:22;;;;;;;69.30;21.33;;;;;;;;;;737745;188;670188;-67
2020/12/18 05:52:53;;;;;;;67.33;24.37;;;;;;;;;;736725;189;632299;-67
2020/12/18 05:55:19;;;;;;;87.37;24.87;;;;;;;;;;739660;188;913379;-66
2020/12/18 05:57:45;;;;;;;62.20;23.00;;;;;;;;;;734558;188;969612;-65
2020/12/18 06:00:11;;;;;;;58.63;21.57;;;;;;;;;;731187;188;926632;-67
2020/12/18 06:02:37;;;;;;;77.80;23.57;;;;;;;;;;736781;188;919253;-66
2020/12/18 06:05:03;;;;;;;53.87;20.17;;;;;;;;;;734161;188;918350;-66
2020/12/18 06:07:29;;;;;;;66.90;23.73;;;;;;;;;;729328;190;919180;-66
2020/12/18 06:09:54;;;;;;;61.97;23.10;;;;;;;;;;726165;188;1635507;-66
2020/12/18 06:12:20;;;;;;;58.73;20.27;;;;;;;;;;735152;189;927059;-67
2020/12/18 06:14:46;;;;;;;68.03;21.27;;;;;;;;;;729945;189;918683;-67
2020/12/18 06:17:12;;;;;;;63.37;21.80;;;;;;;;;;733692;189;918996;-66
2020/12/18 06:19:40;;;;;;;63.53;22.33;;;;;;;;;;741243;189;919351;-67
2020/12/18 06:22:05;;;;;;;71.07;23.67;;;;;;;;;;734090;189;919557;-66
2020/12/18 06:24:31;;;;;;;79.17;23.20;;;;;;;;;;733339;187;920108;-65
2020/12/18 06:26:57;;;;;;;74.03;23.73;;;;;;;;;;731081;188;926441;-66
2020/12/18 06:29:23;;;;;;;85.80;21.97;;;;;;;;;;731104;189;919737;-67
2020/12/18 06:31:49;;;;;;;69.37;21.13;;;;;;;;;;724139;189;1362331;-66
2020/12/18 06:34:31;;;;;;;71.83;23.87;;;;;;;;;;728046;189;918985;-67
2020/12/18 06:36:57;;;;;;;67.12;21.87;;;;;;;;;;731145;189;1052217;-66
2020/12/18 06:39:24;;;;;;;72.13;24.90;;;;;;;;;;741832;189;918618;-66
2020/12/18 06:41:56;;;;;;;72.73;22.67;;;;;;;;;;733247;188;919066;-66
2020/12/18 06:44:28;;;;;;;70.63;24.07;;;;;;;;;;734079;189;921000;-66
2020/12/18 06:47:10;;;;;;;87.43;22.83;;;;;;;;;;732878;188;919033;-66
2020/12/18 06:49:42;;;;;;;65.47;21.37;;;;;;;;;;735519;188;917660;-67
2020/12/18 06:52:08;;;;;;;67.87;25.20;;;;;;;;;;735263;188;919267;-66
2020/12/18 06:54:34;;;;;;;62.07;22.30;;;;;;;;;;731440;189;918929;-65
2020/12/18 06:57:17;;;;;;;56.93;23.13;;;;;;;;;;732156;188;917973;-66
2020/12/18 06:59:43;;;;;;;62.63;22.33;;;;;;;;;;732926;189;920202;-66
2020/12/18 07:02:29;;;;;;;71.73;23.40;;;;;;;;;;731581;188;922133;-66
2020/12/18 07:04:54;;;;;;;71.57;24.63;;;;;;;;;;729362;188;919348;-67
2020/12/18 07:07:20;;;;;;;68.20;24.57;;;;;;;;;;739244;187;918983;-65
2020/12/18 07:09:46;;;;;;;74.10;23.40;;;;;;;;;;735035;187;919101;-66
2020/12/18 07:12:12;;;;;;;67.50;22.00;;;;;;;;;;734290;187;919386;-66
2020/12/18 07:14:38;;;;;;;61.30;21.55;;;;;;;;;;743383;187;918880;-67
2020/12/18 07:17:04;;;;;;;63.23;22.93;;;;;;;;;;736203;188;919076;-66
2020/12/18 07:19:30;;;;;;;60.80;23.20;;;;;;;;;;730194;187;963662;-67
2020/12/18 07:21:56;;;;;;;72.70;25.53;;;;;;;;;;739169;187;918796;-66
2020/12/18 07:24:21;;;;;;;65.87;22.13;;;;;;;;;;732938;189;918862;-66
2020/12/18 07:26:47;;;;;;;79.23;23.13;;;;;;;;;;736792;189;918895;-66
2020/12/18 07:29:13;;;;;;;73.97;25.55;;;;;;;;;;731529;189;919989;-67
2020/12/18 07:31:39;;;;;;;56.17;21.60;;;;;;;;;;732050;189;918872;-67
2020/12/18 07:34:05;;;;;;;52.30;21.20;;;;;;;;;;732969;189;918711;-67
2020/12/18 07:36:31;;;;;;;60.37;24.60;;;;;;;;;;735489;189;919361;-68
2020/12/18 07:38:57;;;;;;;60.57;21.30;;;;;;;;;;740099;188;918346;-67
2020/12/18 07:41:24;;;;;;;54.37;20.93;;;;;;;;;;736227;189;918838;-66
2020/12/18 07:43:49;;;;;;;65.13;22.50;;;;;;;;;;729615;189;918217;-66
2020/12/18 07:46:17;;;;;;;66.57;21.20;;;;;;;;;;735406;189;919163;-66
2020/12/18 07:48:44;;;;;;;69.73;22.60;;;;;;;;;;729973;189;920854;-66
2020/12/18 07:51:10;;;;;;;51.13;20.87;;;;;;;;;;731746;189;920957;-66
2020/12/18 07:53:37;;;;;;;75.03;22.80;;;;;;;;;;732661;189;918931;-66
2020/12/18 07:56:03;;;;;;;55.10;23.13;;;;;;;;;;736106;189;919420;-66
2020/12/18 07:58:29;;;;;;;49.80;20.80;;;;;;;;;;735445;189;919164;-66
2020/12/18 08:01:00;;;;;;;57.62;21.40;;;;;;;;;;733273;188;1314589;-66
2020/12/18 08:03:26;;;;;;;62.63;23.67;;;;;;;;;;737984;188;918268;-66
2020/12/18 08:05:52;;;;;;;53.47;21.03;;;;;;;;;;736036;188;919636;-66
2020/12/18 08:08:18;;;;;;;57.53;21.10;;;;;;;;;;734996;188;919741;-66
2020/12/18 08:10:43;;;;;;;49.77;20.20;;;;;;;;;;730650;189;939919;-65
2020/12/18 08:13:09;;;;;;;51.13;21.03;;;;;;;;;;739589;188;918359;-67
2020/12/18 08:15:35;;;;;;;55.97;20.20;;;;;;;;;;733418;186;916006;-66
2020/12/18 08:18:01;;;;;;;58.92;21.83;;;;;;;;;;736149;187;923979;-66
2020/12/18 08:20:27;;;;;;;59.93;21.60;;;;;;;;;;740531;188;919565;-67
2020/12/18 08:22:53;;;;;;;60.30;23.70;;;;;;;;;;738079;188;919457;-67
2020/12/18 08:25:19;;;;;;;55.53;22.57;;;;;;;;;;735942;188;918989;-66
2020/12/18 08:27:46;;;;;;;57.27;21.70;;;;;;;;;;738037;188;919403;-68
2020/12/18 08:30:12;;;;;;;63.93;21.73;;;;;;;;;;737321;188;919886;-67
2020/12/18 08:32:39;;;;;;;49.27;18.70;;;;;;;;;;738652;188;885779;-65
2020/12/18 08:35:04;;;;;;;76.83;24.27;;;;;;;;;;734496;189;919790;-66
2020/12/18 08:37:30;;;;;;;53.57;22.50;;;;;;;;;;729031;189;919447;-66
2020/12/18 08:39:56;;;;;;;58.93;22.30;;;;;;;;;;722593;190;1021657;-65
2020/12/18 08:42:22;;;;;;;48.00;19.80;;;;;;;;;;724435;190;919379;-66
2020/12/18 08:44:47;;;;;;;61.37;20.03;;;;;;;;;;737968;188;920907;-66
2020/12/18 08:47:24;;;;;;;59.53;18.20;;;;;;;;;;729213;189;1077035;-65
2020/12/18 08:49:50;;;;;;;62.60;22.70;;;;;;;;;;735090;189;920773;-66
2020/12/18 08:52:16;;;;;;;63.10;21.97;;;;;;;;;;731918;189;919331;-66
2020/12/18 08:54:42;;;;;;;60.07;19.10;;;;;;;;;;738958;189;912151;-67
2020/12/18 08:57:09;;;;;;;62.73;22.80;;;;;;;;;;731099;188;915986;-66
2020/12/18 08:59:35;;;;;;;63.20;19.23;;;;;;;;;;731108;188;916151;-66
2020/12/18 09:02:01;;;;;;;60.50;21.07;;;;;;;;;;739457;189;916276;-66
2020/12/18 09:04:26;;;;;;;50.88;18.92;;;;;;;;;;737529;187;949697;-66
2020/12/18 09:06:52;;;;;;;48.93;18.73;;;;;;;;;;733072;188;1169319;-66
2020/12/18 09:09:18;;;;;;;53.75;21.33;;;;;;;;;;739096;188;917367;-66
2020/12/18 09:11:45;;;;;;;50.47;17.90;;;;;;;;;;730249;189;916174;-65
2020/12/18 09:14:10;;;;;;;54.47;20.83;;;;;;;;;;730268;188;918805;-67
2020/12/18 09:16:36;;;;;;;56.90;21.10;;;;;;;;;;731422;188;918724;-65
2020/12/18 09:19:01;;;;;;;66.07;22.20;;;;;;;;;;737195;189;918422;-66
2020/12/18 09:21:27;;;;;;;61.93;21.53;;;;;;;;;;734488;189;946189;-65
2020/12/18 09:23:53;;;;;;;63.47;21.20;;;;;;;;;;732435;188;921426;-66
2020/12/18 09:26:22;;;;;;;53.87;21.90;;;;;;;;;;739524;189;919732;-65
2020/12/18 09:28:48;;;;;;;60.33;22.63;;;;;;;;;;733738;187;1204902;-64
2020/12/18 09:31:14;;;;;;;65.40;23.87;;;;;;;;;;736501;188;918909;-65
2020/12/18 09:33:40;;;;;;;56.13;23.35;;;;;;;;;;737582;188;1022696;-65
2020/12/18 09:36:09;;;;;;;63.33;25.20;;;;;;;;;;735795;186;919031;-65
2020/12/18 09:38:36;;;;;;;54.13;23.27;;;;;;;;;;730310;188;919203;-66
2020/12/18 09:41:01;;;;;;;70.87;25.10;;;;;;;;;;735609;188;917894;-66
2020/12/18 09:43:27;;;;;;;61.97;22.40;;;;;;;;;;738977;188;918880;-66
2020/12/18 09:45:53;;;;;;;64.37;24.17;;;;;;;;;;737633;188;919107;-66
2020/12/18 09:48:19;;;;;;;57.95;23.40;;;;;;;;;;733098;189;919331;-66
2020/12/18 09:50:45;;;;;;;55.77;21.53;;;;;;;;;;742236;189;918588;-65
2020/12/18 09:53:11;;;;;;;58.07;20.63;;;;;;;;;;734880;189;918730;-66
2020/12/18 09:55:37;;;;;;;61.63;24.40;;;;;;;;;;732558;188;919268;-66
2020/12/18 09:58:02;;;;;;;83.80;26.50;;;;;;;;;;721958;190;919237;-66
2020/12/18 10:00:28;;;;;;;59.40;23.30;;;;;;;;;;713768;189;918943;-67
2020/12/18 10:02:54;;;;;;;53.73;22.13;;;;;;;;;;728751;189;919788;-65
2020/12/18 10:05:20;;;;;;;59.63;23.83;;;;;;;;;;731687;189;918798;-66
2020/12/18 10:07:46;;;;;;;69.23;21.03;;;;;;;;;;738203;189;1019993;-66
2020/12/18 10:10:12;;;;;;;53.37;22.27;;;;;;;;;;730660;189;921602;-66
2020/12/18 10:12:37;;;;;;;57.80;22.47;;;;;;;;;;736111;188;919296;-66
2020/12/18 10:15:03;;;;;;;66.17;24.10;;;;;;;;;;739628;188;916124;-66
2020/12/18 10:17:29;;;;;;;77.93;25.77;;;;;;;;;;734340;188;920141;-65
2020/12/18 10:19:55;;;;;;;73.17;25.83;;;;;;;;;;732585;187;918859;-67
2020/12/18 10:22:21;;;;;;;59.07;23.10;;;;;;;;;;738136;188;918970;-66
2020/12/18 10:24:47;;;;;;;64.37;22.87;;;;;;;;;;731076;189;919283;-66
2020/12/18 10:27:13;;;;;;;61.33;25.50;;;;;;;;;;735451;189;919675;-66
2020/12/18 10:29:38;;;;;;;63.50;25.53;;;;;;;;;;735903;189;919118;-66
2020/12/18 10:32:04;;;;;;;72.47;25.47;;;;;;;;;;734960;188;919374;-66
2020/12/18 10:34:30;;;;;;;66.60;23.90;;;;;;;;;;735871;189;919174;-65
2020/12/18 10:36:56;;;;;;;64.30;24.73;;;;;;;;;;730584;188;919312;-66
2020/12/18 10:39:24;;;;;;;69.83;25.60;;;;;;;;;;738809;188;919122;-66
2020/12/18 10:41:50;;;;;;;65.40;25.60;;;;;;;;;;734461;187;919000;-66
2020/12/18 10:44:16;;;;;;;73.63;27.27;;;;;;;;;;736031;187;919454;-66
2020/12/18 10:46:42;;;;;;;67.83;22.30;;;;;;;;;;739234;187;919067;-65
2020/12/18 10:49:09;;;;;;;79.70;26.30;;;;;;;;;;739069;187;919249;-67
2020/12/18 10:51:34;;;;;;;84.43;28.70;;;;;;;;;;739644;188;619166;-66
2020/12/18 10:54:00;;;;;;;58.50;24.47;;;;;;;;;;738620;188;919133;-66
2020/12/18 10:56:25;;;;;;;69.90;24.93;;;;;;;;;;741424;187;919093;-65
2020/12/18 10:58:51;;;;;;;66.77;25.63;;;;;;;;;;733731;189;919132;-65
2020/12/18 11:01:17;;;;;;;63.67;22.93;;;;;;;;;;732546;188;918021;-66
2020/12/18 11:03:43;;;;;;;62.30;25.70;;;;;;;;;;739109;189;919521;-66
2020/12/18 11:06:09;;;;;;;57.73;24.27;;;;;;;;;;734778;189;921183;-66
2020/12/18 11:08:35;;;;;;;51.13;23.42;;;;;;;;;;733573;188;919085;-67
2020/12/18 11:11:01;;;;;;;61.10;24.30;;;;;;;;;;741318;188;919661;-66
2020/12/18 11:13:26;;;;;;;60.73;26.20;;;;;;;;;;733470;189;918861;-67
2020/12/18 11:15:52;;;;;;;58.03;24.60;;;;;;;;;;737713;188;916811;-66
2020/12/18 11:18:18;;;;;;;67.85;26.23;;;;;;;;;;733648;189;921936;-64
2020/12/18 11:20:44;;;;;;;73.23;26.47;;;;;;;;;;731880;189;916657;-67
2020/12/18 11:23:10;;;;;;;67.18;27.00;;;;;;;;;;731810;189;946002;-65
2020/12/18 11:25:36;;;;;;;75.07;28.73;;;;;;;;;;728004;190;918250;-67
2020/12/18 11:28:01;;;;;;;63.42;26.92;;;;;;;;;;734794;189;944803;-67
2020/12/18 11:30:27;;;;;;;67.60;25.57;;;;;;;;;;731003;188;919025;-66
2020/12/18 11:32:53;;;;;;;68.27;29.43;;;;;;;;;;734005;188;918944;-66
2020/12/18 11:35:19;;;;;;;61.83;26.77;;;;;;;;;;738599;188;1019837;-67
2020/12/18 11:37:45;;;;;;;60.07;26.67;;;;;;;;;;735230;189;920251;-66
2020/12/18 11:40:11;;;;;;;66.65;26.17;;;;;;;;;;736415;188;919125;-66
2020/12/18 11:42:37;;;;;;;54.37;24.90;;;;;;;;;;736791;189;918758;-65
2020/12/18 11:45:02;;;;;;;61.80;25.67;;;;;;;;;;733867;189;920466;-65
2020/12/18 11:47:28;;;;;;;57.40;22.73;;;;;;;;;;735355;189;917732;-65
2020/12/18 11:49:54;;;;;;;55.37;25.30;;;;;;;;;;733113;186;920145;-65
2020/12/18 11:52:20;;;;;;;64.80;25.50;;;;;;;;;;742181;188;941964;-66
2020/12/18 11:54:46;;;;;;;67.40;27.90;;;;;;;;;;732849;188;918583;-65
2020/12/18 11:57:12;;;;;;;86.30;29.30;;;;;;;;;;736788;188;918802;-66
2020/12/18 11:59:37;;;;;;;62.30;27.37;;;;;;;;;;738278;188;918857;-66
2020/12/18 12:02:04;;;;;;;68.80;27.30;;;;;;;;;;734213;188;920403;-65
2020/12/18 12:04:29;;;;;;;74.10;27.73;;;;;;;;;;732777;187;1186981;-65
2020/12/18 12:06:55;;;;;;;62.20;26.63;;;;;;;;;;736905;188;919711;-65
2020/12/18 12:09:22;;;;;;;75.70;30.50;;;;;;;;;;731399;187;927746;-65
2020/12/18 12:11:47;;;;;;;60.33;26.37;;;;;;;;;;735456;189;915983;-66
2020/12/18 12:14:14;;;;;;;62.38;28.05;;;;;;;;;;736554;188;1017831;-65
2020/12/18 12:16:39;;;;;;;55.77;27.07;;;;;;;;;;737829;189;916030;-66
2020/12/18 12:19:05;;;;;;;62.07;25.90;;;;;;;;;;727942;189;918163;-66
2020/12/18 12:21:32;;;;;;;56.63;26.90;;;;;;;;;;735866;188;918959;-66
2020/12/18 12:23:58;;;;;;;66.13;26.40;;;;;;;;;;742903;188;909311;-66
2020/12/18 12:26:24;;;;;;;72.20;29.40;;;;;;;;;;734455;187;916470;-66
2020/12/18 12:28:50;;;;;;;72.77;28.40;;;;;;;;;;732331;188;914904;-65
2020/12/18 12:31:16;;;;;;;69.23;26.90;;;;;;;;;;735923;188;918468;-66
2020/12/18 12:33:42;;;;;;;82.23;32.03;;;;;;;;;;732735;188;942716;-67
2020/12/18 12:36:08;;;;;;;72.60;27.20;;;;;;;;;;733821;188;924797;-66
2020/12/18 12:38:35;;;;;;;83.50;29.10;;;;;;;;;;741607;187;943492;-65
2020/12/18 12:41:01;;;;;;;64.20;26.50;;;;;;;;;;728673;188;919351;-66
2020/12/18 12:43:27;;;;;;;74.17;26.53;;;;;;;;;;729499;189;918741;-66
2020/12/18 12:45:53;;;;;;;74.53;27.58;;;;;;;;;;731702;188;918865;-65
2020/12/18 12:48:19;;;;;;;70.37;28.80;;;;;;;;;;738571;189;918838;-66
2020/12/18 12:50:45;;;;;;;73.10;28.93;;;;;;;;;;717995;188;3762839;-66
2020/12/18 12:53:11;;;;;;;67.47;30.70;;;;;;;;;;735694;188;917182;-66
2020/12/18 12:55:37;;;;;;;67.87;30.10;;;;;;;;;;737778;188;918675;-66
2020/12/18 12:58:02;;;;;;;83.05;29.10;;;;;;;;;;736246;188;920040;-67
2020/12/18 13:00:28;;;;;;;85.03;27.87;;;;;;;;;;733318;188;920767;-66
2020/12/18 13:02:54;;;;;;;71.97;29.17;;;;;;;;;;739692;187;920325;-66
2020/12/18 13:05:20;;;;;;;62.43;24.13;;;;;;;;;;735689;187;920281;-67
2020/12/18 13:07:52;;;;;;;68.30;26.53;;;;;;;;;;734373;187;919692;-65
2020/12/18 13:10:12;;;;;;;67.63;24.70;;;;;;;;;;736010;188;916758;-67
2020/12/18 13:12:38;;;;;;;67.45;27.00;;;;;;;;;;738937;187;919312;-66
2020/12/18 13:15:04;;;;;;;70.43;29.57;;;;;;;;;;735352;187;918996;-66
2020/12/18 13:17:29;;;;;;;81.53;28.45;;;;;;;;;;731727;188;1061071;-68
2020/12/18 13:19:56;;;;;;;72.00;28.33;;;;;;;;;;741857;187;918589;-67
2020/12/18 13:22:21;;;;;;;80.67;32.20;;;;;;;;;;735616;187;920051;-67
2020/12/18 13:24:47;;;;;;;71.93;27.93;;;;;;;;;;735241;188;939334;-66
2020/12/18 13:27:13;;;;;;;85.13;29.17;;;;;;;;;;740388;188;918296;-67
2020/12/18 13:29:39;;;;;;;63.30;25.60;;;;;;;;;;733555;189;916130;-67
2020/12/18 13:32:04;;;;;;;78.97;28.58;;;;;;;;;;731793;188;1301180;-66
2020/12/18 13:34:34;;;;;;;72.72;26.55;;;;;;;;;;735448;188;918692;-67
2020/12/18 13:36:56;;;;;;;69.60;29.13;;;;;;;;;;725433;188;918684;-66
2020/12/18 13:39:22;;;;;;;69.00;27.43;;;;;;;;;;731578;189;918948;-68
2020/12/18 13:41:48;;;;;;;73.05;27.33;;;;;;;;;;734264;188;919047;-67
2020/12/18 13:44:14;;;;;;;70.23;28.20;;;;;;;;;;734590;189;921394;-67
2020/12/18 13:46:40;;;;;;;58.33;25.30;;;;;;;;;;735214;189;919240;-67
2020/12/18 13:49:05;;;;;;;77.03;30.40;;;;;;;;;;735313;189;918127;-67
2020/12/18 13:51:31;;;;;;;69.50;29.20;;;;;;;;;;739963;189;919168;-67
2020/12/18 13:53:57;;;;;;;69.80;30.97;;;;;;;;;;730395;188;949998;-67
2020/12/18 13:56:23;;;;;;;73.93;27.40;;;;;;;;;;734612;189;918650;-67
2020/12/18 13:58:49;;;;;;;74.03;31.77;;;;;;;;;;737286;188;1015331;-67